»·PEaware :: SKW1295 KSLC-KLAS

SKW1295 :: KSLC-KLAS

FLIGHT INFORMATION

Flight Status: Arrived
Operator:
SkyWest Airlines
More flights by this operator :: More flights under this callsign
Pilot: James L. (29223)
Aircraft: EMBRAER EMB-170/175
(E170)
More flights by this aircraft type
Origin: KSLC Salt Lake City Intl
United States
Destination: KLAS McCarran Intl
United States
More flights between these airports :: More routes between these airports
Route: ZIONZ1 EHK KSINO SITEE4
File this flight plan on PilotEdge
Remarks:
Altitude:
(Current/Filed)
32,000ft
Speed:
(Current/Filed)
450kts
Departed: 22-May-20 08:53 AM
Arrived: 22-May-20 09:52 AM
Distance/Time
Traveled:
319nm/0:59
Distance/Time
To Go:
Arrived

Flight Plot

Page will automatically refresh every two minutes.


Map Options




Map Legend


Flown Route
Filed Route
Departure Airport
Arrival Airport
Navaid (VOR, NDB)
Fix

Horizontal Profiles

Position Reports

Time Latitude Longitude Heading Altitude Ground
Speed
22-May-20 08:13 40.787073 -111.979192 132 4234ft 0kts
22-May-20 08:14 40.787073 -111.979192 132 4234ft 0kts
22-May-20 08:15 40.787073 -111.979192 132 4234ft 0kts
22-May-20 08:16 40.787073 -111.979192 132 4234ft 0kts
22-May-20 08:17 40.787073 -111.979192 132 4234ft 0kts
22-May-20 08:18 40.787073 -111.979192 132 4234ft 0kts
22-May-20 08:19 40.787073 -111.979192 132 4234ft 0kts
22-May-20 08:20 40.787073 -111.979192 132 4234ft 0kts
22-May-20 08:21 40.787073 -111.979192 132 4234ft 0kts
22-May-20 08:22 40.787073 -111.979192 132 4234ft 0kts
22-May-20 08:23 40.787073 -111.979192 132 4234ft 0kts
22-May-20 08:24 40.787073 -111.979192 132 4234ft 0kts
22-May-20 08:25 40.787073 -111.979192 132 4234ft 0kts
22-May-20 08:26 40.787073 -111.979192 132 4234ft 0kts
22-May-20 08:27 40.787073 -111.979192 132 4234ft 0kts
22-May-20 08:28 40.787073 -111.979192 132 4234ft 0kts
22-May-20 08:29 40.787073 -111.979192 132 4234ft 0kts
22-May-20 08:30 40.787073 -111.979192 132 4234ft 0kts
22-May-20 08:31 40.787073 -111.979192 132 4234ft 0kts
22-May-20 08:32 40.787073 -111.979192 132 4234ft 0kts
22-May-20 08:33 40.787073 -111.979192 132 4234ft 0kts
22-May-20 08:34 40.787073 -111.979192 132 4234ft 0kts
22-May-20 08:35 40.787073 -111.979192 132 4234ft 0kts
22-May-20 08:36 40.787073 -111.979192 132 4234ft 0kts
22-May-20 08:37 40.787073 -111.979192 132 4234ft 0kts
22-May-20 08:38 40.787073 -111.979192 132 4234ft 0kts
22-May-20 08:39 40.787073 -111.979192 132 4234ft 0kts
22-May-20 08:40 40.787151 -111.979305 132 4234ft 2kts
22-May-20 08:41 40.787518 -111.979843 130 4234ft 1kts
22-May-20 08:42 40.787392 -111.980388 20 4234ft 0kts
22-May-20 08:43 40.787393 -111.980388 20 4234ft 0kts
22-May-20 08:44 40.788228 -111.980001 17 4234ft 12kts
22-May-20 08:45 40.790231 -111.978621 85 4234ft 4kts
22-May-20 08:46 40.792326 -111.977351 355 4234ft 18kts
22-May-20 08:47 40.796654 -111.977850 354 4234ft 13kts
22-May-20 08:48 40.802130 -111.978479 359 4234ft 19kts
22-May-20 08:49 40.806516 -111.978559 355 4234ft 17kts
22-May-20 08:50 40.807135 -111.978498 31 4234ft 0kts
22-May-20 08:51 40.806793 -111.976866 168 4234ft 15kts
22-May-20 08:52 40.790094 -111.974894 174 4347ft 183kts
22-May-20 08:53 40.740090 -111.966818 172 7351ft 192kts
22-May-20 08:54 40.683282 -111.955986 171 10468ft 237kts
22-May-20 08:55 40.616158 -111.940178 173 14853ft 253kts
22-May-20 08:56 40.551861 -111.942558 233 18979ft 236kts
22-May-20 08:57 40.500898 -111.977028 165 21727ft 264kts
22-May-20 08:58 40.426732 -111.940298 165 22981ft 338kts
22-May-20 08:59 40.322874 -111.923742 185 22999ft 392kts
22-May-20 09:00 40.219284 -111.935418 189 23464ft 376kts
22-May-20 09:01 40.114759 -111.951196 190 25114ft 400kts
22-May-20 09:02 39.999198 -111.968359 190 27259ft 430kts
22-May-20 09:03 39.881455 -111.984468 190 28888ft 424kts
22-May-20 09:04 39.764851 -112.000940 191 30526ft 421kts
22-May-20 09:05 39.649342 -112.016649 191 31984ft 418kts
22-May-20 09:06 39.535235 -112.038746 196 32027ft 413kts
22-May-20 09:07 39.421769 -112.060919 186 32026ft 420kts
22-May-20 09:08 39.306240 -112.071775 191 32026ft 416kts
22-May-20 09:09 39.191202 -112.087927 191 32024ft 416kts
22-May-20 09:10 39.085417 -112.133139 213 32017ft 403kts
22-May-20 09:11 38.987574 -112.204372 213 32013ft 409kts
22-May-20 09:12 38.887511 -112.277575 213 32016ft 421kts
22-May-20 09:13 38.785482 -112.352838 213 32017ft 422kts
22-May-20 09:14 38.684033 -112.427584 213 32028ft 421kts
22-May-20 09:15 38.582484 -112.502359 213 32040ft 421kts
22-May-20 09:16 38.481072 -112.576895 213 32041ft 422kts
22-May-20 09:17 38.379701 -112.651403 213 32040ft 421kts
22-May-20 09:18 38.278279 -112.725748 213 32047ft 422kts
22-May-20 09:19 38.176468 -112.799432 210 32048ft 423kts
22-May-20 09:20 38.073348 -112.870524 212 32045ft 420kts
22-May-20 09:21 37.971065 -112.941575 212 31988ft 418kts
22-May-20 09:22 37.869406 -113.011465 212 32000ft 417kts
22-May-20 09:23 37.767628 -113.081398 213 31999ft 416kts
22-May-20 09:24 37.666203 -113.151392 212 31999ft 416kts
22-May-20 09:25 37.564680 -113.221123 212 31998ft 416kts
22-May-20 09:26 37.463173 -113.290638 212 31996ft 416kts
22-May-20 09:27 37.370621 -113.371878 244 31982ft 404kts
22-May-20 09:28 37.301056 -113.480084 219 31963ft 412kts
22-May-20 09:29 37.206261 -113.560591 218 31957ft 413kts
22-May-20 09:30 37.110902 -113.640512 217 31955ft 413kts
22-May-20 09:31 37.015026 -113.720650 217 30920ft 417kts
22-May-20 09:32 36.918170 -113.801322 216 28908ft 421kts
22-May-20 09:33 36.820107 -113.882736 215 26910ft 426kts
22-May-20 09:34 36.725433 -113.961071 215 25610ft 388kts
22-May-20 09:35 36.635534 -114.035300 214 23283ft 391kts
22-May-20 09:36 36.555857 -114.124304 235 20968ft 370kts
22-May-20 09:38 36.508364 -114.216341 235 18019ft 315kts
22-May-20 09:39 36.462325 -114.306200 235 16047ft 312kts
22-May-20 09:40 36.415672 -114.397065 235 13531ft 298kts
22-May-20 09:41 36.373171 -114.479629 234 12068ft 284kts
22-May-20 09:42 36.330385 -114.562746 234 10740ft 283kts
22-May-20 09:43 36.284341 -114.634898 202 9685ft 252kts
22-May-20 09:44 36.219821 -114.664204 197 8251ft 246kts
22-May-20 09:45 36.159704 -114.690151 198 8032ft 224kts
22-May-20 09:46 36.101143 -114.716890 219 8009ft 226kts
22-May-20 09:47 36.070406 -114.789141 241 6552ft 244kts
22-May-20 09:48 36.066895 -114.873852 278 5222ft 275kts
22-May-20 09:49 36.074211 -114.969749 266 4419ft 256kts
22-May-20 09:50 36.073536 -115.043525 269 3404ft 166kts
22-May-20 09:51 36.073620 -115.098915 271 2470ft 158kts
22-May-20 09:52 36.073661 -115.142754 274 2092ft 39kts
22-May-20 09:52 36.074817 -115.146096 298 2102ft 0kts
22-May-20 09:54 36.074817 -115.146096 298 2102ft 0kts
22-May-20 09:55 36.077498 -115.146554 357 2100ft 0kts
22-May-20 09:55 36.078456 -115.146369 91 2096ft 11kts
22-May-20 09:57 36.078860 -115.140163 338 2077ft 9kts
22-May-20 09:57 36.079871 -115.139976 23 2074ft 0kts
22-May-20 09:58 36.079871 -115.139976 23 2074ft 0kts
22-May-20 09:59 36.079871 -115.139976 23 2074ft 0kts

Navigation Log

Ident Type
Flight plan parsing failed, navigation log unavailable